sensor_id;sensor_type;location;lat;lon;timestamp;P1;durP1;ratioP1;P2;durP2;ratioP2
62024;SDS011;47978;49.118;12.146;2023-07-31T18:11:43;5.50;;;3.67;;
62024;SDS011;47978;49.118;12.146;2023-07-31T18:15:44;7.97;;;2.67;;
62024;SDS011;47978;49.118;12.146;2023-07-31T18:19:46;4.60;;;2.50;;
62024;SDS011;47978;49.118;12.146;2023-07-31T18:23:48;4.78;;;3.38;;
62024;SDS011;47978;49.118;12.146;2023-07-31T18:27:51;5.85;;;3.00;;
62024;SDS011;47978;49.118;12.146;2023-07-31T18:31:52;3.55;;;2.28;;
62024;SDS011;47978;49.118;12.146;2023-07-31T18:35:54;3.45;;;2.70;;
62024;SDS011;47978;49.118;12.146;2023-07-31T18:39:56;4.22;;;2.50;;
62024;SDS011;47978;49.118;12.146;2023-07-31T18:43:59;6.57;;;2.55;;
62024;SDS011;47978;49.118;12.146;2023-07-31T18:48:00;6.35;;;3.05;;
62024;SDS011;47978;49.118;12.146;2023-07-31T18:52:02;7.25;;;2.58;;
62024;SDS011;47978;49.118;12.146;2023-07-31T18:56:04;6.53;;;2.83;;
62024;SDS011;47978;49.118;12.146;2023-07-31T19:00:07;5.03;;;2.55;;
62024;SDS011;47978;49.118;12.146;2023-07-31T19:04:10;4.65;;;2.20;;
62024;SDS011;47978;49.118;12.146;2023-07-31T19:08:12;6.10;;;2.72;;
62024;SDS011;47978;49.118;12.146;2023-07-31T19:12:13;7.18;;;2.65;;
62024;SDS011;47978;49.118;12.146;2023-07-31T19:16:16;7.35;;;3.10;;
62024;SDS011;47978;49.118;12.146;2023-07-31T19:24:19;3.83;;;2.50;;
62024;SDS011;47978;49.118;12.146;2023-07-31T19:28:21;4.93;;;2.67;;
62024;SDS011;47978;49.118;12.146;2023-07-31T19:32:24;9.27;;;3.55;;
62024;SDS011;47978;49.118;12.146;2023-07-31T19:36:26;4.97;;;2.70;;
62024;SDS011;47978;49.118;12.146;2023-07-31T19:40:27;5.18;;;2.83;;
62024;SDS011;47978;49.118;12.146;2023-07-31T19:44:29;7.40;;;3.20;;
62024;SDS011;47978;49.118;12.146;2023-07-31T19:48:32;9.38;;;3.00;;
62024;SDS011;47978;49.118;12.146;2023-07-31T19:56:35;8.38;;;2.70;;
62024;SDS011;47978;49.118;12.146;2023-07-31T20:00:36;7.03;;;2.83;;
62024;SDS011;47978;49.118;12.146;2023-07-31T20:04:39;9.23;;;3.10;;
62024;SDS011;47978;49.118;12.146;2023-07-31T20:08:41;7.53;;;2.65;;
62024;SDS011;47978;49.118;12.146;2023-07-31T20:12:43;4.88;;;2.63;;
62024;SDS011;47978;49.118;12.146;2023-07-31T20:16:44;7.38;;;2.90;;
62024;SDS011;47978;49.118;12.146;2023-07-31T20:20:47;4.72;;;2.75;;
62024;SDS011;47978;49.118;12.146;2023-07-31T20:28:50;7.75;;;3.00;;
62024;SDS011;47978;49.118;12.146;2023-07-31T20:32:52;6.70;;;3.15;;
62024;SDS011;47978;49.118;12.146;2023-07-31T20:36:55;6.03;;;2.95;;
62024;SDS011;47978;49.118;12.146;2023-07-31T20:44:58;4.90;;;2.80;;
62024;SDS011;47978;49.118;12.146;2023-07-31T20:48:59;5.25;;;2.70;;
62024;SDS011;47978;49.118;12.146;2023-07-31T20:53:03;5.38;;;2.60;;
62024;SDS011;47978;49.118;12.146;2023-07-31T20:57:05;5.80;;;2.70;;
62024;SDS011;47978;49.118;12.146;2023-07-31T21:01:07;9.10;;;3.15;;
62024;SDS011;47978;49.118;12.146;2023-07-31T21:05:08;6.38;;;2.60;;
62024;SDS011;47978;49.118;12.146;2023-07-31T21:09:11;8.07;;;3.15;;
62024;SDS011;47978;49.118;12.146;2023-07-31T21:17:14;5.25;;;2.97;;
62024;SDS011;47978;49.118;12.146;2023-07-31T21:21:16;7.03;;;3.38;;
62024;SDS011;47978;49.118;12.146;2023-07-31T21:25:19;4.85;;;2.92;;
62024;SDS011;47978;49.118;12.146;2023-07-31T21:29:21;5.53;;;2.92;;
62024;SDS011;47978;49.118;12.146;2023-07-31T21:33:23;5.30;;;3.05;;
62024;SDS011;47978;49.118;12.146;2023-07-31T21:37:25;6.40;;;3.05;;
62024;SDS011;47978;49.118;12.146;2023-07-31T21:41:27;11.02;;;2.90;;
62024;SDS011;47978;49.118;12.146;2023-07-31T21:49:30;5.63;;;3.60;;
62024;SDS011;47978;49.118;12.146;2023-07-31T21:53:32;4.28;;;3.03;;
62024;SDS011;47978;49.118;12.146;2023-07-31T21:57:35;7.82;;;3.30;;
62024;SDS011;47978;49.118;12.146;2023-07-31T22:05:38;6.45;;;3.40;;
62024;SDS011;47978;49.118;12.146;2023-07-31T22:09:39;5.05;;;3.42;;
62024;SDS011;47978;49.118;12.146;2023-07-31T22:13:42;7.38;;;3.42;;
62024;SDS011;47978;49.118;12.146;2023-07-31T22:21:45;6.70;;;3.58;;
62024;SDS011;47978;49.118;12.146;2023-07-31T22:25:47;6.85;;;3.58;;
62024;SDS011;47978;49.118;12.146;2023-07-31T22:29:50;7.93;;;3.90;;
62024;SDS011;47978;49.118;12.146;2023-07-31T22:37:53;5.80;;;3.60;;
62024;SDS011;47978;49.118;12.146;2023-07-31T22:41:55;6.68;;;3.40;;
62024;SDS011;47978;49.118;12.146;2023-07-31T22:45:58;7.85;;;3.65;;
62024;SDS011;47978;49.118;12.146;2023-07-31T22:54:01;8.27;;;4.03;;
62024;SDS011;47978;49.118;12.146;2023-07-31T22:58:02;7.93;;;4.38;;
62024;SDS011;47978;49.118;12.146;2023-07-31T23:02:05;11.80;;;4.65;;
62024;SDS011;47978;49.118;12.146;2023-07-31T23:06:07;10.13;;;4.50;;
62024;SDS011;47978;49.118;12.146;2023-07-31T23:10:09;8.48;;;5.28;;
62024;SDS011;47978;49.118;12.146;2023-07-31T23:14:10;6.28;;;4.72;;
62024;SDS011;47978;49.118;12.146;2023-07-31T23:18:13;7.70;;;4.78;;
62024;SDS011;47978;49.118;12.146;2023-07-31T23:26:16;7.28;;;4.32;;
62024;SDS011;47978;49.118;12.146;2023-07-31T23:30:18;7.22;;;4.70;;
62024;SDS011;47978;49.118;12.146;2023-07-31T23:34:21;5.43;;;4.07;;
62024;SDS011;47978;49.118;12.146;2023-07-31T23:38:23;10.32;;;4.97;;
62024;SDS011;47978;49.118;12.146;2023-07-31T23:42:24;7.53;;;4.00;;
62024;SDS011;47978;49.118;12.146;2023-07-31T23:46:26;5.95;;;4.25;;
62024;SDS011;47978;49.118;12.146;2023-07-31T23:50:29;9.23;;;4.38;;
62024;SDS011;47978;49.118;12.146;2023-07-31T23:58:32;6.70;;;3.75;;
